Time;durP1;ratioP1;P1;durP2;ratioP2;P2;SDS_P1;SDS_P2;PMS_P1;PMS_P2;Temp;Humidity;BMP_temperature;BMP_pressure;BME280_temperature;BME280_humidity;BME280_pressure;Samples;Min_cycle;Max_cycle;Signal;HPM_P1;HPM_P2
2022/07/15 00:02:20;;;;;;;1.63;1.00;;;23.20;51.70;;;;;;5012312;28;20063;-70
2022/07/15 00:04:46;;;;;;;2.00;1.00;;;23.20;51.60;;;;;;4993450;28;20711;-70
2022/07/15 00:07:12;;;;;;;1.90;0.90;;;23.20;51.60;;;;;;5011891;28;20400;-70
2022/07/15 00:12:22;;;;;;;1.60;0.88;;;23.20;51.70;;;;;;5010910;28;20477;-70
2022/07/15 00:14:48;;;;;;;2.05;1.10;;;23.20;52.40;;;;;;5010765;28;20034;-70
2022/07/15 00:17:14;;;;;;;2.15;1.10;;;23.20;51.70;;;;;;4996854;28;20523;-69
2022/07/15 00:19:39;;;;;;;2.22;1.10;;;23.20;51.70;;;;;;5014552;28;20045;-70
2022/07/15 00:22:06;;;;;;;2.50;1.00;;;23.20;51.70;;;;;;5010020;28;20562;-70
2022/07/15 00:24:31;;;;;;;2.15;1.10;;;23.20;51.70;;;;;;4997425;28;20044;-70
2022/07/15 00:26:57;;;;;;;3.03;0.90;;;23.20;51.70;;;;;;5008542;28;20056;-70
2022/07/15 00:29:23;;;;;;;3.22;1.27;;;23.20;51.70;;;;;;4995861;28;20130;-70
2022/07/15 00:31:49;;;;;;;1.95;0.80;;;23.20;51.70;;;;;;5011919;28;20485;-70
2022/07/15 00:34:16;;;;;;;1.40;1.05;;;23.20;51.70;;;;;;5014133;28;20037;-70
2022/07/15 00:36:42;;;;;;;2.25;0.98;;;23.20;51.70;;;;;;5014649;28;20076;-70
2022/07/15 00:39:09;;;;;;;1.80;0.80;;;23.20;51.70;;;;;;5010706;28;20513;-70
2022/07/15 00:41:39;;;;;;;1.33;1.10;;;23.20;51.70;;;;;;5013096;28;20045;-70
2022/07/15 00:44:05;;;;;;;2.22;0.80;;;23.20;52.40;;;;;;5012282;28;20124;-70
2022/07/15 00:46:31;;;;;;;2.53;1.00;;;23.20;51.80;;;;;;5013857;28;20087;-70
2022/07/15 00:48:59;;;;;;;3.83;1.17;;;23.20;51.70;;;;;;5013988;28;20055;-70
2022/07/15 00:51:25;;;;;;;2.50;1.00;;;23.20;51.70;;;;;;5012839;28;20120;-70
2022/07/15 00:53:53;;;;;;;2.00;1.00;;;23.10;51.70;;;;;;4994147;28;20124;-70
2022/07/15 00:56:22;;;;;;;1.83;0.90;;;23.10;51.70;;;;;;5012469;28;20037;-70
2022/07/15 00:58:51;;;;;;;2.33;0.90;;;23.10;51.60;;;;;;4994937;28;20045;-70
2022/07/15 01:01:20;;;;;;;3.35;0.90;;;23.10;51.60;;;;;;5012792;28;20064;-70
2022/07/15 01:03:48;;;;;;;1.50;0.88;;;23.10;51.60;;;;;;4987352;28;20136;-70
2022/07/15 01:06:14;;;;;;;1.65;1.00;;;23.10;51.70;;;;;;4987759;28;20040;-69
2022/07/15 01:08:40;;;;;;;2.67;1.00;;;23.10;51.70;;;;;;4992910;28;20527;-70
2022/07/15 01:11:06;;;;;;;2.08;1.00;;;23.10;51.60;;;;;;5012889;28;20093;-69
2022/07/15 01:13:32;;;;;;;1.83;0.90;;;23.10;51.60;;;;;;5011249;28;20037;-70
2022/07/15 01:15:57;;;;;;;2.65;1.10;;;23.10;51.60;;;;;;5011832;28;20492;-69
2022/07/15 01:18:23;;;;;;;2.38;1.15;;;23.10;51.70;;;;;;4998312;28;20128;-69
2022/07/15 01:20:49;;;;;;;2.58;0.90;;;23.10;51.70;;;;;;5011590;28;20037;-69
2022/07/15 01:23:15;;;;;;;2.75;0.80;;;23.10;51.70;;;;;;5009749;28;20493;-69
2022/07/15 01:25:41;;;;;;;1.55;0.80;;;23.10;51.70;;;;;;5012795;28;20379;-69
2022/07/15 01:28:08;;;;;;;3.45;1.00;;;23.10;51.80;;;;;;5002033;28;20045;-69
2022/07/15 01:30:34;;;;;;;2.85;1.00;;;23.10;51.70;;;;;;5010830;28;20428;-70
2022/07/15 01:33:00;;;;;;;2.15;0.90;;;23.10;51.70;;;;;;5012740;28;20056;-69
2022/07/15 01:35:26;;;;;;;2.42;1.08;;;23.10;51.70;;;;;;5013435;28;20041;-69
2022/07/15 01:37:51;;;;;;;2.95;1.08;;;23.10;51.70;;;;;;4991624;28;20044;-69
2022/07/15 01:40:17;;;;;;;3.47;1.00;;;23.10;51.70;;;;;;5012460;28;21816;-70
2022/07/15 01:42:43;;;;;;;3.17;1.02;;;23.10;51.70;;;;;;5030551;28;20048;-70
2022/07/15 01:45:10;;;;;;;2.10;0.90;;;23.10;51.70;;;;;;5012112;28;20057;-70
2022/07/15 01:47:47;;;;;;;3.20;1.10;;;23.10;51.80;;;;;;4997078;28;20448;-69
2022/07/15 01:50:13;;;;;;;2.35;0.90;;;23.10;51.70;;;;;;5007710;28;20065;-70
2022/07/15 01:52:39;;;;;;;2.67;1.20;;;23.10;51.80;;;;;;5006645;28;20073;-70
2022/07/15 01:55:07;;;;;;;3.50;0.98;;;23.10;51.80;;;;;;4992596;28;20105;-69
2022/07/15 01:57:33;;;;;;;2.58;0.80;;;23.10;51.80;;;;;;5013820;28;20060;-70
2022/07/15 01:59:58;;;;;;;3.35;1.25;;;23.10;51.70;;;;;;5012507;28;20045;-69
2022/07/15 02:02:24;;;;;;;4.72;1.00;;;23.10;51.80;;;;;;5011054;28;20037;-69
2022/07/15 02:04:50;;;;;;;1.10;0.88;;;23.10;51.80;;;;;;4982435;28;20037;-69
2022/07/15 02:07:15;;;;;;;1.70;0.95;;;23.10;51.80;;;;;;5009683;28;20033;-70
2022/07/15 02:09:41;;;;;;;3.15;1.23;;;23.10;51.80;;;;;;4994375;28;20033;-69
2022/07/15 02:12:07;;;;;;;1.55;0.70;;;23.10;51.80;;;;;;4991907;28;20053;-70
2022/07/15 02:14:33;;;;;;;1.65;1.00;;;23.10;52.50;;;;;;5011974;28;20045;-69
2022/07/15 02:17:00;;;;;;;2.53;0.80;;;23.10;51.80;;;;;;4997934;28;20513;-69
2022/07/15 02:19:26;;;;;;;1.30;0.90;;;23.10;51.80;;;;;;5012673;28;20047;-69
2022/07/15 02:21:51;;;;;;;2.13;0.88;;;23.10;51.80;;;;;;5007202;28;20856;-69
2022/07/15 02:24:19;;;;;;;2.00;1.13;;;23.10;51.80;;;;;;5012740;28;20047;-69
2022/07/15 02:26:45;;;;;;;3.65;0.90;;;23.00;51.80;;;;;;5012447;28;20069;-70
2022/07/15 02:29:11;;;;;;;2.05;1.17;;;23.00;51.80;;;;;;5012494;28;20042;-70
2022/07/15 02:31:36;;;;;;;2.45;1.02;;;23.10;51.80;;;;;;4996504;28;20129;-70
2022/07/15 02:34:03;;;;;;;1.02;0.80;;;23.10;51.80;;;;;;5010296;28;20285;-69
2022/07/15 02:36:29;;;;;;;2.10;0.93;;;23.00;51.80;;;;;;5016249;28;20048;-70
2022/07/15 02:38:55;;;;;;;4.18;1.23;;;23.00;51.80;;;;;;5002104;28;20047;-69
2022/07/15 02:41:21;;;;;;;2.53;0.93;;;23.00;51.80;;;;;;5000879;28;20048;-70
2022/07/15 02:43:46;;;;;;;1.85;1.08;;;23.00;51.80;;;;;;4998347;28;20047;-70
2022/07/15 02:46:12;;;;;;;2.30;0.80;;;23.00;51.80;;;;;;5012088;28;20489;-70
2022/07/15 02:48:39;;;;;;;2.35;1.20;;;23.00;51.80;;;;;;4997994;28;20704;-70
2022/07/15 02:51:05;;;;;;;2.13;1.10;;;23.00;51.80;;;;;;4998519;28;20141;-69
2022/07/15 02:53:30;;;;;;;1.83;1.20;;;23.00;51.80;;;;;;5013326;28;20079;-70
2022/07/15 02:55:58;;;;;;;2.25;0.90;;;23.00;51.80;;;;;;5015009;28;20036;-70
2022/07/15 02:58:24;;;;;;;2.42;1.00;;;23.00;51.80;;;;;;5011938;28;20063;-69
2022/07/15 03:00:50;;;;;;;2.55;1.20;;;23.00;51.90;;;;;;5015268;28;20488;-70
2022/07/15 03:03:16;;;;;;;1.35;0.98;;;23.00;51.90;;;;;;5012906;28;20037;-69
2022/07/15 03:05:42;;;;;;;1.85;0.90;;;23.00;51.90;;;;;;5014149;28;20436;-69
2022/07/15 03:08:07;;;;;;;1.90;0.90;;;23.00;51.90;;;;;;5010501;28;20071;-69
2022/07/15 03:10:33;;;;;;;1.52;0.80;;;23.00;51.90;;;;;;5014465;28;20038;-69
2022/07/15 03:12:59;;;;;;;2.50;1.10;;;23.00;51.90;;;;;;5011759;28;20048;-69
2022/07/15 03:15:25;;;;;;;2.65;1.08;;;23.00;51.90;;;;;;5015775;28;20047;-70
2022/07/15 03:17:51;;;;;;;2.35;0.90;;;23.00;51.90;;;;;;5013108;28;20033;-70
2022/07/15 03:20:17;;;;;;;1.92;1.00;;;23.00;51.90;;;;;;5012916;28;20106;-69
2022/07/15 03:22:42;;;;;;;2.55;0.98;;;23.00;51.90;;;;;;5013336;28;20106;-69
2022/07/15 03:25:09;;;;;;;2.95;0.90;;;23.00;51.90;;;;;;4999218;28;20045;-70
2022/07/15 03:27:34;;;;;;;2.53;1.02;;;23.00;51.90;;;;;;5014338;28;20032;-69
2022/07/15 03:30:00;;;;;;;2.33;1.02;;;23.00;51.90;;;;;;5014890;28;20500;-69
2022/07/15 03:32:26;;;;;;;2.40;0.80;;;23.00;52.00;;;;;;5014562;28;20048;-69
2022/07/15 03:34:52;;;;;;;3.10;0.98;;;23.00;52.00;;;;;;5013948;28;20041;-68
2022/07/15 03:37:18;;;;;;;2.75;0.85;;;23.00;51.90;;;;;;5015866;28;20168;-69
2022/07/15 03:39:44;;;;;;;2.67;1.17;;;23.00;52.00;;;;;;5010279;28;20099;-69
2022/07/15 03:42:10;;;;;;;1.70;0.90;;;23.00;52.00;;;;;;5013429;28;20033;-69
2022/07/15 03:44:36;;;;;;;2.25;0.88;;;23.00;52.00;;;;;;5008166;28;20048;-69
2022/07/15 03:47:02;;;;;;;1.45;0.90;;;23.00;52.00;;;;;;5012027;28;20057;-69
2022/07/15 03:49:27;;;;;;;1.55;0.80;;;23.00;52.00;;;;;;5015678;28;21125;-69
2022/07/15 03:51:53;;;;;;;2.70;0.93;;;23.00;52.00;;;;;;5019969;28;20041;-69
2022/07/15 03:54:19;;;;;;;1.88;0.80;;;23.00;52.00;;;;;;4995333;28;20047;-69
2022/07/15 03:56:47;;;;;;;2.00;0.82;;;23.00;51.90;;;;;;4993314;28;20079;-69
2022/07/15 03:59:17;;;;;;;2.45;0.80;;;23.00;52.00;;;;;;5011449;28;20064;-70
2022/07/15 04:01:43;;;;;;;1.95;1.02;;;23.00;52.00;;;;;;5014383;28;21067;-69
2022/07/15 04:04:09;;;;;;;2.05;1.00;;;23.00;52.00;;;;;;5013092;28;20041;-71
2022/07/15 04:06:35;;;;;;;1.35;0.68;;;23.00;52.10;;;;;;5013458;28;20052;-71
2022/07/15 04:09:01;;;;;;;3.13;1.02;;;23.00;52.00;;;;;;5012000;28;20103;-71
2022/07/15 04:11:27;;;;;;;3.20;1.23;;;23.00;52.00;;;;;;5010557;28;20180;-71
2022/07/15 04:13:53;;;;;;;1.63;0.90;;;23.00;52.00;;;;;;5010831;28;20505;-70
2022/07/15 04:16:18;;;;;;;1.92;0.70;;;22.90;52.00;;;;;;4996849;28;20056;-69
2022/07/15 04:18:44;;;;;;;1.77;0.90;;;22.90;52.00;;;;;;5012619;28;20045;-70
2022/07/15 04:21:10;;;;;;;3.45;1.33;;;23.00;52.00;;;;;;5013634;28;20041;-71
2022/07/15 04:23:36;;;;;;;2.08;1.02;;;22.90;52.00;;;;;;5009986;28;20037;-70
2022/07/15 04:26:02;;;;;;;3.00;1.00;;;23.00;52.00;;;;;;5012115;28;20050;-70
2022/07/15 04:28:28;;;;;;;1.95;0.95;;;22.90;52.00;;;;;;5013314;28;20430;-69
2022/07/15 04:30:54;;;;;;;1.88;0.90;;;22.90;52.00;;;;;;5011528;28;20325;-69
2022/07/15 04:33:20;;;;;;;1.27;0.80;;;22.90;52.00;;;;;;4996552;28;20493;-69
2022/07/15 04:35:46;;;;;;;2.63;1.20;;;22.90;52.00;;;;;;5000893;28;20516;-69
2022/07/15 04:38:12;;;;;;;1.63;1.02;;;22.90;52.00;;;;;;5010439;28;20044;-69
2022/07/15 04:40:39;;;;;;;3.17;1.25;;;22.90;52.00;;;;;;5011897;28;20040;-69
2022/07/15 04:43:06;;;;;;;1.73;1.00;;;22.90;52.00;;;;;;5011085;28;20076;-69
2022/07/15 04:45:32;;;;;;;1.65;1.10;;;22.90;52.00;;;;;;5010889;28;20037;-66
2022/07/15 04:47:58;;;;;;;2.85;0.90;;;22.90;52.00;;;;;;5014112;28;20080;-69
2022/07/15 04:53:08;;;;;;;1.65;0.80;;;22.90;52.00;;;;;;5012714;28;20540;-69
2022/07/15 04:55:34;;;;;;;1.92;0.90;;;22.90;52.00;;;;;;5010218;28;20041;-70
2022/07/15 04:58:00;;;;;;;3.58;1.10;;;22.90;52.00;;;;;;5013227;28;20132;-68
2022/07/15 05:00:26;;;;;;;1.80;0.80;;;22.90;52.00;;;;;;5013561;28;20048;-70
2022/07/15 05:02:52;;;;;;;2.35;0.98;;;22.90;52.00;;;;;;5012360;28;20052;-69
2022/07/15 05:05:18;;;;;;;3.13;0.93;;;22.90;52.10;;;;;;5009029;28;20045;-69
2022/07/15 05:07:45;;;;;;;2.55;1.08;;;22.90;52.00;;;;;;5014531;28;20449;-69
2022/07/15 05:10:12;;;;;;;2.78;0.85;;;22.90;52.10;;;;;;5001486;28;20536;-71
2022/07/15 05:12:39;;;;;;;2.75;0.80;;;22.90;52.00;;;;;;5011001;28;20095;-69
2022/07/15 05:15:05;;;;;;;1.27;0.88;;;22.90;52.10;;;;;;5013278;28;20123;-70
2022/07/15 05:17:30;;;;;;;1.75;0.90;;;22.90;52.00;;;;;;5008873;28;20045;-69
2022/07/15 05:19:56;;;;;;;2.58;0.90;;;22.90;52.00;;;;;;5013961;28;20539;-70
2022/07/15 05:22:22;;;;;;;1.90;1.05;;;22.90;52.00;;;;;;4996055;28;20064;-69
2022/07/15 05:24:48;;;;;;;2.50;0.90;;;22.90;52.10;;;;;;5012393;28;20762;-69
2022/07/15 05:27:14;;;;;;;2.90;1.00;;;22.90;52.10;;;;;;5012970;28;20048;-69
2022/07/15 05:29:41;;;;;;;3.00;1.00;;;22.80;52.00;;;;;;5013711;28;20037;-69
2022/07/15 05:32:07;;;;;;;2.78;0.90;;;22.90;52.10;;;;;;4995031;28;20111;-69
2022/07/15 05:34:32;;;;;;;3.35;0.88;;;22.90;52.20;;;;;;5029568;28;20579;-70
2022/07/15 05:36:58;;;;;;;3.03;0.73;;;22.90;52.60;;;;;;5013545;28;20465;-70
2022/07/15 05:39:24;;;;;;;3.90;1.00;;;22.90;52.70;;;;;;5009064;28;20049;-70
2022/07/15 05:41:50;;;;;;;7.72;1.20;;;22.90;52.90;;;;;;5006235;28;20475;-70
2022/07/15 05:44:16;;;;;;;3.67;1.00;;;23.00;53.10;;;;;;4991535;28;20146;-70
2022/07/15 05:46:42;;;;;;;3.65;0.88;;;23.00;53.30;;;;;;5010711;28;20501;-69
2022/07/15 05:49:07;;;;;;;4.32;1.10;;;23.00;53.40;;;;;;5010438;28;20076;-69
2022/07/15 05:51:36;;;;;;;5.18;0.80;;;23.00;53.50;;;;;;5016214;28;20563;-70
2022/07/15 05:54:02;;;;;;;3.17;0.90;;;23.00;53.50;;;;;;5011294;28;20045;-71
2022/07/15 05:56:28;;;;;;;3.35;0.70;;;23.00;53.50;;;;;;5011443;28;20495;-70
2022/07/15 05:58:53;;;;;;;2.38;1.00;;;23.00;53.50;;;;;;5012386;28;20436;-69
2022/07/15 06:01:21;;;;;;;4.25;0.90;;;23.10;53.60;;;;;;5010342;28;20554;-67
2022/07/15 06:03:47;;;;;;;1.75;0.63;;;23.10;53.50;;;;;;5009231;28;20053;-67
2022/07/15 06:06:12;;;;;;;4.40;0.95;;;23.10;53.40;;;;;;4990134;28;20041;-67
2022/07/15 06:08:38;;;;;;;2.60;0.85;;;23.00;53.40;;;;;;5014321;28;20037;-68
2022/07/15 06:11:04;;;;;;;6.68;0.80;;;23.10;53.40;;;;;;5016991;28;20102;-67
2022/07/15 06:13:30;;;;;;;2.25;0.60;;;23.00;53.40;;;;;;5003948;28;20045;-70
2022/07/15 06:15:56;;;;;;;2.80;0.88;;;23.10;53.40;;;;;;5015222;28;20079;-69
2022/07/15 06:18:21;;;;;;;2.95;1.00;;;23.10;53.50;;;;;;5037729;28;20049;-65
2022/07/15 06:20:47;;;;;;;2.67;0.80;;;23.10;53.50;;;;;;5036286;28;20128;-66
2022/07/15 06:23:13;;;;;;;2.15;0.95;;;23.10;53.60;;;;;;5021893;28;20152;-66
2022/07/15 06:25:39;;;;;;;2.15;0.85;;;23.10;53.70;;;;;;5035875;28;20029;-65
2022/07/15 06:28:04;;;;;;;4.72;0.80;;;23.10;53.70;;;;;;5015366;28;20386;-66
2022/07/15 06:30:33;;;;;;;3.75;1.08;;;23.10;53.70;;;;;;5035631;28;20055;-66
2022/07/15 06:32:58;;;;;;;1.10;0.60;;;23.10;54.40;;;;;;5014329;28;20126;-66
2022/07/15 06:35:24;;;;;;;3.13;0.77;;;23.10;53.70;;;;;;5037620;28;20078;-66
2022/07/15 06:37:51;;;;;;;6.07;0.98;;;23.10;53.70;;;;;;5018072;28;20461;-66
2022/07/15 06:40:17;;;;;;;3.38;0.80;;;23.10;53.70;;;;;;5031857;28;20076;-66
2022/07/15 06:42:43;;;;;;;3.35;0.77;;;23.10;53.70;;;;;;5002306;28;20045;-66
2022/07/15 06:45:10;;;;;;;2.47;0.73;;;23.10;53.70;;;;;;5025321;28;20040;-66
2022/07/15 06:47:38;;;;;;;2.78;0.82;;;23.10;53.60;;;;;;5011001;28;20049;-67
2022/07/15 06:50:05;;;;;;;1.80;0.60;;;23.10;53.50;;;;;;5025249;28;20044;-65
2022/07/15 06:52:30;;;;;;;5.05;0.82;;;23.10;53.60;;;;;;5010491;28;20547;-67
2022/07/15 06:54:57;;;;;;;4.05;0.80;;;23.10;53.60;;;;;;5010929;28;20164;-67
2022/07/15 06:57:23;;;;;;;2.58;0.60;;;23.10;53.60;;;;;;5010425;28;20056;-65
2022/07/15 06:59:49;;;;;;;3.25;0.60;;;23.10;53.50;;;;;;5028733;28;20409;-65
2022/07/15 07:02:14;;;;;;;5.80;1.00;;;23.10;53.60;;;;;;5012115;28;20045;-65
2022/07/15 07:04:42;;;;;;;2.42;0.75;;;23.10;53.60;;;;;;5008527;28;20049;-65
2022/07/15 07:07:08;;;;;;;3.10;0.60;;;23.10;53.50;;;;;;5030684;28;20048;-66
2022/07/15 07:09:33;;;;;;;6.30;1.20;;;23.10;53.60;;;;;;5030796;28;20045;-65
2022/07/15 07:11:59;;;;;;;2.80;0.70;;;23.10;53.60;;;;;;5026070;28;20037;-65
2022/07/15 07:14:25;;;;;;;5.03;0.70;;;23.10;53.70;;;;;;5011230;28;20049;-65
2022/07/15 07:16:51;;;;;;;2.25;0.63;;;23.10;53.70;;;;;;5033012;28;20102;-65
2022/07/15 07:19:17;;;;;;;1.90;0.80;;;23.10;53.70;;;;;;5000099;28;20045;-65
2022/07/15 07:21:42;;;;;;;1.42;0.50;;;23.10;53.70;;;;;;5030988;28;20374;-65
2022/07/15 07:24:08;;;;;;;1.95;0.57;;;23.10;53.60;;;;;;5032448;28;20056;-66
2022/07/15 07:26:34;;;;;;;1.65;0.60;;;23.10;53.80;;;;;;5005258;28;20474;-66
2022/07/15 07:29:00;;;;;;;2.20;0.55;;;23.10;53.70;;;;;;5030432;28;20033;-65
2022/07/15 07:31:26;;;;;;;1.13;0.65;;;23.10;53.70;;;;;;5013900;28;20813;-66
2022/07/15 07:33:55;;;;;;;2.75;0.50;;;23.10;53.60;;;;;;5034682;28;20045;-66
2022/07/15 07:36:21;;;;;;;0.80;0.30;;;23.10;53.70;;;;;;5025646;28;20132;-65
2022/07/15 07:38:46;;;;;;;8.25;1.05;;;23.10;53.50;;;;;;5033001;28;20048;-66
2022/07/15 07:41:12;;;;;;;1.80;0.60;;;23.10;53.40;;;;;;5030335;28;20180;-65
2022/07/15 07:43:38;;;;;;;1.95;0.60;;;23.10;54.00;;;;;;5013879;28;20037;-65
2022/07/15 07:46:04;;;;;;;1.05;0.60;;;23.10;53.20;;;;;;5012947;28;20087;-65
2022/07/15 07:48:30;;;;;;;1.40;0.50;;;23.10;53.10;;;;;;5035462;28;20088;-66
2022/07/15 07:50:56;;;;;;;5.38;0.60;;;23.00;53.00;;;;;;5030574;28;20452;-67
2022/07/15 07:53:22;;;;;;;3.58;0.70;;;23.10;53.20;;;;;;5012089;28;20120;-68
2022/07/15 07:55:49;;;;;;;1.85;0.40;;;23.10;53.10;;;;;;5011362;28;20129;-68
2022/07/15 07:58:16;;;;;;;0.80;0.50;;;23.10;53.10;;;;;;5011866;28;20084;-65
2022/07/15 08:00:43;;;;;;;2.22;0.60;;;23.10;53.10;;;;;;5029186;28;20049;-66
2022/07/15 08:03:08;;;;;;;2.70;0.47;;;23.10;53.20;;;;;;5011981;28;20094;-66
2022/07/15 08:05:35;;;;;;;0.98;0.40;;;23.10;53.30;;;;;;5015639;28;20038;-66
2022/07/15 08:08:15;;;;;;;2.38;0.50;;;23.10;53.40;;;;;;5014524;28;20107;-65
2022/07/15 08:10:42;;;;;;;;;;;23.10;53.40;;;;;;5033263;28;20045;-66
2022/07/15 08:13:08;;;;;;;1.70;0.50;;;23.10;53.60;;;;;;5000759;28;19921;-66
2022/07/15 08:15:33;;;;;;;2.72;0.45;;;23.00;53.60;;;;;;5030755;28;20095;-66
2022/07/15 08:18:01;;;;;;;1.67;0.40;;;23.00;53.60;;;;;;5033119;28;20577;-66
2022/07/15 08:20:27;;;;;;;2.20;0.50;;;23.10;53.40;;;;;;5031008;28;20452;-65
2022/07/15 08:22:58;;;;;;;1.08;0.50;;;23.10;53.40;;;;;;5011973;28;20030;-66
2022/07/15 08:25:25;;;;;;;0.80;0.52;;;23.10;53.50;;;;;;5009490;28;20083;-66
2022/07/15 08:27:51;;;;;;;2.85;0.40;;;23.10;53.50;;;;;;5009248;28;20119;-66
2022/07/15 08:30:17;;;;;;;1.52;0.60;;;23.10;53.20;;;;;;5032750;28;20045;-66
2022/07/15 08:32:42;;;;;;;0.98;0.40;;;23.10;53.30;;;;;;5032130;28;20040;-67
2022/07/15 08:35:08;;;;;;;1.25;0.35;;;23.10;53.30;;;;;;5011605;28;20120;-67
2022/07/15 08:37:33;;;;;;;1.95;0.40;;;23.10;53.40;;;;;;5009390;28;20095;-67
2022/07/15 08:40:00;;;;;;;1.85;0.50;;;23.10;53.30;;;;;;5034905;28;20041;-67
2022/07/15 08:42:26;;;;;;;0.80;0.32;;;23.10;53.20;;;;;;5030157;28;20056;-67
2022/07/15 08:44:53;;;;;;;2.05;0.60;;;23.10;54.00;;;;;;5031463;28;20049;-67
2022/07/15 08:47:21;;;;;;;1.52;0.30;;;23.10;53.20;;;;;;5031579;28;20410;-67
2022/07/15 08:49:48;;;;;;;2.05;0.57;;;23.10;53.20;;;;;;5031887;28;20095;-67
2022/07/15 08:52:16;;;;;;;0.75;0.20;;;23.10;53.20;;;;;;5015094;28;20041;-67
2022/07/15 08:54:41;;;;;;;1.52;0.55;;;23.10;53.10;;;;;;5026294;28;22196;-67
2022/07/15 08:57:07;;;;;;;0.65;0.47;;;23.10;53.10;;;;;;5012353;28;20041;-67
2022/07/15 08:59:33;;;;;;;0.60;0.43;;;23.10;53.00;;;;;;4996034;28;20692;-67
2022/07/15 09:01:59;;;;;;;1.40;0.30;;;23.10;52.90;;;;;;5028556;28;20079;-67
2022/07/15 09:04:25;;;;;;;2.22;0.30;;;23.10;53.00;;;;;;5012993;28;20098;-66
2022/07/15 09:06:51;;;;;;;1.23;0.43;;;23.10;53.00;;;;;;5013009;28;20729;-66
2022/07/15 09:09:28;;;;;;;1.20;0.40;;;23.00;53.00;;;;;;5031285;28;20034;-67
2022/07/15 09:11:57;;;;;;;1.45;0.20;;;23.10;53.00;;;;;;5031815;28;20045;-67
2022/07/15 09:14:25;;;;;;;1.48;0.20;;;23.10;53.10;;;;;;5011103;28;20573;-67
2022/07/15 09:17:09;;;;;;;1.13;0.50;;;23.00;53.10;;;;;;5008365;28;20041;-66
2022/07/15 09:20:00;;;;;;;0.65;0.20;;;23.10;53.00;;;;;;5014370;28;20489;-66
2022/07/15 09:22:30;;;;;;;1.75;0.30;;;23.10;53.10;;;;;;5031614;28;20053;-67
2022/07/15 09:25:06;;;;;;;1.55;0.20;;;23.10;53.20;;;;;;5033224;28;20074;-67
2022/07/15 09:27:38;;;;;;;0.30;0.20;;;23.10;53.40;;;;;;5008539;28;20094;-66
2022/07/15 09:33:34;;;;;;;1.70;0.40;;;23.10;53.60;;;;;;5027463;28;20111;-66
2022/07/15 09:36:16;;;;;;;0.65;0.47;;;23.10;53.60;;;;;;5009955;28;20406;-66
2022/07/15 09:38:52;;;;;;;1.95;0.32;;;23.10;53.60;;;;;;5027290;28;20103;-66
2022/07/15 09:41:32;;;;;;;1.90;0.28;;;23.10;53.50;;;;;;5030164;28;20061;-66
2022/07/15 09:44:16;;;;;;;1.40;0.30;;;23.10;53.50;;;;;;5028085;28;20048;-65
2022/07/15 09:46:45;;;;;;;1.45;0.60;;;23.10;53.30;;;;;;5026704;28;20048;-66
2022/07/15 09:49:13;;;;;;;1.10;0.25;;;23.10;53.20;;;;;;5009220;28;20140;-66
2022/07/15 09:51:57;;;;;;;0.95;0.30;;;23.10;52.90;;;;;;5028518;28;20037;-66
2022/07/15 09:54:24;;;;;;;0.60;0.30;;;23.10;53.20;;;;;;5022688;28;20049;-66
2022/07/15 09:56:51;;;;;;;6.03;0.43;;;23.10;53.10;;;;;;5004241;28;20047;-66
2022/07/15 09:59:19;;;;;;;0.93;0.30;;;23.10;53.20;;;;;;4989883;28;20047;-66
2022/07/15 10:01:47;;;;;;;0.50;0.20;;;23.10;53.10;;;;;;5023926;28;20473;-66
2022/07/15 10:04:15;;;;;;;1.75;0.20;;;23.10;53.10;;;;;;5020655;28;20475;-66
2022/07/15 10:06:42;;;;;;;1.55;0.30;;;23.10;53.00;;;;;;5027645;28;20110;-67
2022/07/15 10:09:11;;;;;;;0.47;0.17;;;23.10;53.10;;;;;;5025708;28;20120;-66
2022/07/15 10:11:43;;;;;;;0.50;0.20;;;23.10;53.30;;;;;;5026158;28;20041;-66
2022/07/15 10:14:25;;;;;;;1.85;0.30;;;23.10;53.10;;;;;;5022395;28;20040;-66
2022/07/15 10:17:20;;;;;;;0.70;0.20;;;23.10;52.90;;;;;;5023663;28;20568;-67
2022/07/15 10:20:14;;;;;;;0.93;0.47;;;23.10;53.00;;;;;;4987496;28;20103;-66
2022/07/15 10:23:01;;;;;;;1.75;0.25;;;23.10;52.90;;;;;;5026557;28;20037;-66
2022/07/15 10:25:55;;;;;;;3.08;0.35;;;23.10;53.10;;;;;;5025406;28;20048;-65
2022/07/15 10:28:41;;;;;;;1.65;0.38;;;23.10;52.80;;;;;;5022047;28;20042;-66
2022/07/15 10:31:17;;;;;;;6.63;0.60;;;23.10;52.70;;;;;;5011469;28;20050;-65
2022/07/15 10:34:03;;;;;;;0.77;0.30;;;23.10;52.70;;;;;;5006520;28;20048;-64
2022/07/15 10:36:49;;;;;;;1.17;0.30;;;23.10;52.70;;;;;;5010095;28;20049;-65
2022/07/15 10:39:19;;;;;;;3.65;0.40;;;23.10;52.60;;;;;;5029191;28;20176;-65
2022/07/15 10:42:02;;;;;;;1.92;0.60;;;23.10;52.70;;;;;;5030817;28;20045;-66
2022/07/15 10:45:02;;;;;;;4.95;0.60;;;23.10;52.70;;;;;;5007867;28;20111;-64
2022/07/15 10:47:28;;;;;;;5.95;0.80;;;23.10;52.60;;;;;;5021901;28;20103;-65
2022/07/15 10:49:54;;;;;;;2.55;0.50;;;23.10;52.70;;;;;;5008714;28;20045;-65
2022/07/15 10:52:21;;;;;;;2.80;0.68;;;23.10;52.80;;;;;;5029603;28;20036;-65
2022/07/15 10:54:54;;;;;;;5.20;0.75;;;23.10;52.80;;;;;;5030388;28;20103;-65
2022/07/15 10:57:20;;;;;;;3.40;0.45;;;23.10;52.90;;;;;;5032301;28;20091;-65
2022/07/15 10:59:54;;;;;;;3.55;0.57;;;23.10;52.90;;;;;;5012295;28;20055;-65
2022/07/15 11:02:21;;;;;;;3.15;0.45;;;23.10;53.00;;;;;;5013058;28;20171;-66
2022/07/15 11:04:48;;;;;;;4.38;0.30;;;23.10;52.80;;;;;;5009292;28;20057;-65
2022/07/15 11:07:14;;;;;;;2.17;0.43;;;23.10;52.90;;;;;;5027638;28;20115;-66
2022/07/15 11:10:02;;;;;;;8.20;0.60;;;23.10;52.80;;;;;;5026238;28;20029;-66
2022/07/15 11:12:30;;;;;;;2.65;0.30;;;23.10;52.50;;;;;;5023338;28;20073;-66
2022/07/15 11:15:19;;;;;;;1.23;0.45;;;23.10;52.50;;;;;;5022419;28;20049;-65
2022/07/15 11:17:48;;;;;;;4.20;0.75;;;23.10;52.60;;;;;;5007427;28;20068;-65
2022/07/15 11:20:23;;;;;;;0.63;0.40;;;23.10;52.40;;;;;;5025364;28;20471;-66
2022/07/15 11:22:51;;;;;;;2.75;0.60;;;23.10;52.20;;;;;;5020104;28;20434;-65
2022/07/15 11:25:28;;;;;;;1.13;0.50;;;23.10;52.40;;;;;;5024452;28;20704;-65
2022/07/15 11:28:03;;;;;;;2.83;0.40;;;23.10;52.30;;;;;;5025062;28;20128;-68
2022/07/15 11:30:40;;;;;;;5.57;0.52;;;23.10;52.40;;;;;;5025534;28;20107;-65
2022/07/15 11:33:12;;;;;;;2.15;0.50;;;23.10;52.20;;;;;;5012554;28;20092;-65
2022/07/15 11:35:44;;;;;;;1.92;0.60;;;23.10;52.20;;;;;;5025309;28;20052;-65
2022/07/15 11:38:10;;;;;;;0.85;0.32;;;23.10;52.20;;;;;;5025645;28;20615;-64
2022/07/15 11:46:06;;;;;;;4.40;0.60;;;23.10;52.20;;;;;;5023893;28;20064;-64
2022/07/15 11:48:39;;;;;;;4.47;0.70;;;23.10;52.20;;;;;;5002443;28;20592;-65
2022/07/15 11:51:07;;;;;;;1.05;0.52;;;23.10;52.20;;;;;;5024785;28;20787;-64
2022/07/15 11:53:43;;;;;;;2.55;0.60;;;23.10;52.20;;;;;;5004792;28;20029;-64
2022/07/15 11:56:11;;;;;;;1.25;0.75;;;23.10;52.20;;;;;;5023699;28;20608;-64
2022/07/15 11:58:39;;;;;;;0.88;0.45;;;23.10;52.20;;;;;;5023627;28;20045;-65
2022/07/15 12:01:14;;;;;;;1.48;0.60;;;23.10;52.20;;;;;;5025149;28;20041;-65
2022/07/15 12:03:42;;;;;;;1.88;0.60;;;23.10;52.20;;;;;;5023031;28;20037;-64
2022/07/15 12:06:10;;;;;;;2.30;0.60;;;23.10;52.10;;;;;;5023904;28;20060;-65
2022/07/15 12:08:38;;;;;;;1.55;0.35;;;23.10;52.10;;;;;;5004882;28;20192;-65
2022/07/15 12:11:15;;;;;;;1.90;0.50;;;23.10;52.10;;;;;;5004867;28;20053;-64
2022/07/15 12:13:47;;;;;;;3.28;0.52;;;23.10;52.00;;;;;;5004975;28;20115;-64
2022/07/15 12:16:14;;;;;;;1.80;0.50;;;23.10;52.10;;;;;;5025163;28;20116;-65
2022/07/15 12:18:40;;;;;;;0.90;0.50;;;23.10;52.10;;;;;;5006487;28;20120;-65
2022/07/15 12:21:06;;;;;;;2.83;0.68;;;23.10;52.10;;;;;;5023951;28;20056;-64
2022/07/15 12:23:32;;;;;;;1.38;0.80;;;23.10;52.20;;;;;;5005676;28;20049;-65
2022/07/15 12:26:10;;;;;;;2.03;0.60;;;23.10;52.10;;;;;;5023832;28;20057;-64
2022/07/15 12:28:37;;;;;;;3.47;0.73;;;23.10;52.10;;;;;;5025711;28;20045;-65
2022/07/15 12:31:04;;;;;;;4.93;0.82;;;23.10;52.30;;;;;;5025692;28;20045;-64
2022/07/15 12:33:35;;;;;;;2.60;0.50;;;23.10;52.70;;;;;;5007715;28;20032;-65
2022/07/15 12:36:16;;;;;;;2.40;0.70;;;23.20;53.20;;;;;;5024480;28;20388;-64
2022/07/15 12:38:42;;;;;;;1.13;0.60;;;23.20;53.20;;;;;;5026406;28;20045;-64
2022/07/15 12:41:28;;;;;;;1.25;0.60;;;23.20;53.20;;;;;;5025932;28;20071;-64
2022/07/15 12:43:58;;;;;;;0.95;0.47;;;23.20;53.10;;;;;;5022045;28;20061;-65
2022/07/15 12:46:46;;;;;;;1.88;0.50;;;23.20;53.10;;;;;;5001553;28;20052;-64
2022/07/15 12:49:12;;;;;;;1.13;0.57;;;23.20;52.90;;;;;;5023516;28;20054;-63
2022/07/15 12:51:38;;;;;;;3.10;0.73;;;23.20;52.90;;;;;;5025343;28;20034;-64
2022/07/15 12:54:05;;;;;;;1.38;0.50;;;23.20;52.90;;;;;;5024514;28;20787;-65
2022/07/15 12:56:49;;;;;;;3.05;0.50;;;23.20;52.80;;;;;;4990402;28;20477;-64
2022/07/15 12:59:14;;;;;;;3.28;0.60;;;23.20;52.80;;;;;;5024277;28;20489;-65
2022/07/15 13:01:44;;;;;;;1.70;0.65;;;23.20;52.70;;;;;;5024598;28;20052;-65
2022/07/15 13:04:10;;;;;;;1.98;0.90;;;23.20;53.00;;;;;;5024708;28;20469;-65
2022/07/15 13:06:35;;;;;;;2.65;0.75;;;23.20;53.10;;;;;;5026334;28;20087;-65
2022/07/15 13:09:01;;;;;;;3.10;0.80;;;23.20;53.40;;;;;;5029420;28;20108;-65